Time;durP1;ratioP1;P1;durP2;ratioP2;P2;SDS_P1;SDS_P2;PMS_P1;PMS_P2;Temp;Humidity;BMP_temperature;BMP_pressure;BME280_temperature;BME280_humidity;BME280_pressure;Samples;Min_cycle;Max_cycle;Signal;HPM_P1;HPM_P2
2022/08/30 00:01:01;;;;;;;2.15;0.50;;;14.90;60.80;;;;;;4120814;28;20113;-89
2022/08/30 00:01:33;;;;;;;2.17;0.68;;;14.80;60.70;;;;;;4117337;28;20060;-88
2022/08/30 00:03:42;;;;;;;1.55;0.50;;;14.90;60.80;;;;;;4114120;28;20294;-89
2022/08/30 00:05:44;;;;;;;2.53;0.47;;;14.90;61.00;;;;;;4128972;28;20081;-87
2022/08/30 00:07:44;;;;;;;1.45;0.70;;;14.80;61.10;;;;;;4119562;28;20026;-87
2022/08/30 00:09:45;;;;;;;3.53;0.70;;;14.90;61.20;;;;;;4117762;28;20142;-88
2022/08/30 00:11:46;;;;;;;2.25;0.65;;;14.80;61.20;;;;;;4121140;28;20035;-88
2022/08/30 00:13:49;;;;;;;2.67;0.82;;;14.90;61.30;;;;;;4116539;28;20041;-87
2022/08/30 00:15:50;;;;;;;;;;;14.90;61.30;;;;;;4135277;28;20038;-88
2022/08/30 00:17:50;;;;;;;1.38;0.60;;;14.80;61.80;;;;;;4105349;28;19910;-86
2022/08/30 00:19:51;;;;;;;3.67;0.55;;;14.90;61.00;;;;;;4125094;28;20037;-87
2022/08/30 00:21:52;;;;;;;2.45;1.00;;;14.90;61.20;;;;;;4111596;28;20039;-87
2022/08/30 00:23:53;;;;;;;3.67;1.05;;;14.90;61.30;;;;;;4118696;28;20034;-86
2022/08/30 00:25:54;;;;;;;2.17;0.60;;;14.90;61.50;;;;;;4126430;28;20110;-87
2022/08/30 00:27:54;;;;;;;3.08;0.82;;;14.90;61.70;;;;;;4118912;28;20029;-86
2022/08/30 00:29:55;;;;;;;3.47;0.70;;;14.90;61.80;;;;;;4122915;28;20124;-87
2022/08/30 00:31:56;;;;;;;2.95;0.50;;;14.80;61.90;;;;;;4116415;28;20546;-86
2022/08/30 00:33:56;;;;;;;2.35;0.60;;;14.90;62.20;;;;;;4117265;28;20519;-87
2022/08/30 00:35:57;;;;;;;0.45;0.30;;;14.90;62.10;;;;;;4119955;28;20030;-87
2022/08/30 00:37:58;;;;;;;1.67;0.63;;;14.90;61.90;;;;;;4111701;28;20407;-87
2022/08/30 00:39:59;;;;;;;1.90;0.63;;;14.90;61.70;;;;;;4121541;28;20556;-87
2022/08/30 00:41:59;;;;;;;3.65;0.70;;;14.80;61.40;;;;;;4115788;28;20018;-87
2022/08/30 00:44:00;;;;;;;3.17;0.90;;;14.80;61.20;;;;;;4116042;28;20514;-87
2022/08/30 00:46:03;;;;;;;1.95;0.60;;;14.80;61.10;;;;;;4115467;28;20030;-86
2022/08/30 00:48:05;;;;;;;1.70;0.80;;;14.70;61.10;;;;;;4116118;28;20034;-87
2022/08/30 00:50:07;;;;;;;1.25;0.80;;;14.70;61.10;;;;;;4120549;28;20084;-87
2022/08/30 00:52:08;;;;;;;4.47;0.60;;;14.60;61.10;;;;;;4113927;28;20030;-87
2022/08/30 00:54:09;;;;;;;1.27;0.68;;;14.60;61.30;;;;;;4116204;28;20034;-87
2022/08/30 00:56:11;;;;;;;1.80;0.63;;;14.60;62.20;;;;;;4119111;28;20061;-87
2022/08/30 00:58:20;;;;;;;6.68;0.93;;;14.50;61.70;;;;;;4117588;28;20089;-88
2022/08/30 01:00:20;;;;;;;1.80;0.88;;;14.50;61.90;;;;;;4109134;28;20139;-87
2022/08/30 01:02:22;;;;;;;1.27;0.60;;;14.40;62.10;;;;;;4103854;28;20077;-87
2022/08/30 01:04:25;;;;;;;1.42;0.80;;;14.40;62.30;;;;;;4116086;28;20058;-88
2022/08/30 01:06:26;;;;;;;2.10;0.85;;;14.40;62.70;;;;;;4116578;28;20092;-87
2022/08/30 01:08:26;;;;;;;2.03;0.80;;;14.30;62.90;;;;;;4119897;28;20083;-88
2022/08/30 01:10:27;;;;;;;4.32;0.70;;;14.30;63.30;;;;;;4115882;28;20022;-87
2022/08/30 01:12:28;;;;;;;3.17;1.00;;;14.30;63.60;;;;;;4120568;28;20030;-87
2022/08/30 01:14:32;;;;;;;4.43;0.90;;;14.20;63.80;;;;;;4120210;28;20117;-87
2022/08/30 01:16:35;;;;;;;1.17;0.60;;;14.20;64.20;;;;;;4119823;28;20961;-87
2022/08/30 01:18:38;;;;;;;3.30;0.82;;;14.20;64.40;;;;;;4110359;28;20069;-86
2022/08/30 01:20:46;;;;;;;2.60;0.80;;;14.30;64.70;;;;;;4116449;28;20026;-87
2022/08/30 01:22:49;;;;;;;2.72;1.08;;;14.10;64.90;;;;;;4113938;28;20121;-88
2022/08/30 01:24:51;;;;;;;;;;;14.10;65.20;;;;;;4114548;28;20469;-87
2022/08/30 01:26:52;;;;;;;6.72;0.98;;;14.10;65.80;;;;;;4124206;28;19969;-87
2022/08/30 01:28:58;;;;;;;2.55;1.20;;;14.10;65.20;;;;;;4118909;28;20034;-88
2022/08/30 01:31:00;;;;;;;2.42;0.77;;;14.10;65.70;;;;;;4116785;28;20032;-88
2022/08/30 01:33:03;;;;;;;1.63;0.93;;;14.00;65.80;;;;;;4116417;28;20027;-88
2022/08/30 01:35:04;;;;;;;2.27;0.90;;;14.00;66.20;;;;;;4116196;28;20070;-88
2022/08/30 01:37:04;;;;;;;4.40;1.00;;;14.00;66.40;;;;;;4128031;28;20351;-88
2022/08/30 01:39:05;;;;;;;1.27;0.80;;;14.00;66.80;;;;;;4113749;28;20030;-88
2022/08/30 01:41:14;;;;;;;2.45;0.98;;;14.00;67.00;;;;;;4119497;28;20323;-87
2022/08/30 01:43:16;;;;;;;4.65;0.90;;;14.00;67.50;;;;;;4103801;28;20407;-85
2022/08/30 01:45:17;;;;;;;5.43;1.10;;;14.00;67.50;;;;;;4118549;28;20057;-86
2022/08/30 01:47:18;;;;;;;2.25;0.75;;;14.00;67.80;;;;;;4118883;28;20035;-87
2022/08/30 01:49:19;;;;;;;2.80;0.90;;;14.00;68.00;;;;;;4126136;28;20413;-87
2022/08/30 01:51:21;;;;;;;2.30;0.88;;;14.00;68.30;;;;;;4110637;28;20037;-86
2022/08/30 01:53:22;;;;;;;1.55;0.73;;;14.00;68.60;;;;;;4117802;28;20042;-87
2022/08/30 01:55:22;;;;;;;2.55;0.95;;;14.00;69.00;;;;;;4117674;28;20348;-87
2022/08/30 01:57:25;;;;;;;4.38;1.10;;;14.00;69.30;;;;;;4121894;28;20353;-87
2022/08/30 01:59:26;;;;;;;4.97;1.35;;;14.00;69.50;;;;;;4114122;28;20067;-87
2022/08/30 02:01:28;;;;;;;6.80;0.88;;;14.00;69.80;;;;;;4131018;28;20095;-86
2022/08/30 02:03:33;;;;;;;2.60;1.10;;;14.10;70.10;;;;;;4116871;28;20036;-87
2022/08/30 02:05:34;;;;;;;1.25;0.77;;;14.10;70.30;;;;;;4116407;28;20454;-86
2022/08/30 02:07:35;;;;;;;2.03;0.77;;;14.10;70.70;;;;;;4116527;28;20041;-86
2022/08/30 02:09:36;;;;;;;3.10;0.95;;;14.20;70.90;;;;;;4114885;28;20406;-86
2022/08/30 02:11:37;;;;;;;2.55;0.90;;;14.20;71.00;;;;;;4115573;28;20904;-87
2022/08/30 02:13:40;;;;;;;6.55;1.15;;;14.30;71.20;;;;;;4115049;28;20114;-87
2022/08/30 02:15:40;;;;;;;4.45;1.10;;;14.30;71.30;;;;;;4119365;28;20677;-87
2022/08/30 02:17:41;;;;;;;4.53;1.10;;;14.30;71.40;;;;;;4114795;28;20057;-86
2022/08/30 02:19:45;;;;;;;1.50;0.73;;;14.30;71.50;;;;;;4121509;28;20037;-87
2022/08/30 02:21:46;;;;;;;5.75;1.08;;;14.40;71.50;;;;;;4128214;28;20073;-87
2022/08/30 02:23:47;;;;;;;2.97;1.17;;;14.40;71.60;;;;;;4122181;28;20105;-88
2022/08/30 02:25:47;;;;;;;4.22;1.10;;;14.40;71.60;;;;;;4119253;28;20035;-87
2022/08/30 02:27:48;;;;;;;3.17;1.17;;;14.50;71.70;;;;;;4119901;28;20097;-87
2022/08/30 02:29:49;;;;;;;2.47;0.70;;;14.50;71.80;;;;;;4135318;28;20033;-87
2022/08/30 02:31:50;;;;;;;2.10;0.93;;;14.50;71.80;;;;;;4122922;28;20034;-87
2022/08/30 02:33:53;;;;;;;3.17;0.98;;;14.50;72.20;;;;;;4129635;28;20026;-87
2022/08/30 02:35:55;;;;;;;2.38;1.05;;;14.50;72.20;;;;;;4136215;28;20045;-86
2022/08/30 02:37:55;;;;;;;2.83;1.05;;;14.60;72.20;;;;;;4124603;28;20054;-86
2022/08/30 02:39:56;;;;;;;4.50;1.00;;;14.60;72.10;;;;;;4122748;28;20053;-86
2022/08/30 02:41:57;;;;;;;2.85;0.95;;;14.60;72.30;;;;;;4126071;28;20054;-86
2022/08/30 02:43:59;;;;;;;3.65;0.88;;;14.70;73.00;;;;;;4120369;28;20483;-86
2022/08/30 02:46:00;;;;;;;3.58;1.00;;;14.70;72.30;;;;;;4129279;28;20018;-86
2022/08/30 02:48:01;;;;;;;5.30;0.73;;;14.70;72.20;;;;;;4117928;28;20085;-87
2022/08/30 02:50:04;;;;;;;4.68;0.90;;;14.80;72.30;;;;;;4120872;28;20519;-87
2022/08/30 02:52:04;;;;;;;;;;;14.80;72.30;;;;;;4115284;28;20756;-87
2022/08/30 02:54:05;;;;;;;3.00;0.95;;;14.80;72.90;;;;;;4123027;28;19913;-87
2022/08/30 02:56:07;;;;;;;4.80;1.05;;;14.80;71.80;;;;;;4123273;28;20110;-85
2022/08/30 02:58:09;;;;;;;4.32;1.23;;;14.80;71.90;;;;;;4121372;28;20034;-86
2022/08/30 03:00:14;;;;;;;4.53;1.10;;;14.80;71.90;;;;;;4119542;28;20034;-86
2022/08/30 03:02:14;;;;;;;3.67;0.90;;;14.80;72.20;;;;;;4120227;28;20549;-86
2022/08/30 03:04:15;;;;;;;2.28;0.85;;;14.90;72.00;;;;;;4118485;28;20091;-87
2022/08/30 03:06:16;;;;;;;1.73;0.70;;;14.90;71.90;;;;;;4121879;28;20038;-86
2022/08/30 03:08:16;;;;;;;2.63;1.13;;;14.90;71.80;;;;;;4118794;28;20029;-86
2022/08/30 03:10:17;;;;;;;2.85;0.85;;;14.90;71.70;;;;;;4138817;28;20018;-86
2022/08/30 03:12:19;;;;;;;2.58;1.23;;;14.90;71.20;;;;;;4121587;28;20055;-86
2022/08/30 03:14:20;;;;;;;3.42;1.20;;;14.90;70.80;;;;;;4122043;28;20042;-87
2022/08/30 03:16:21;;;;;;;3.17;1.27;;;14.90;70.50;;;;;;4119109;28;20106;-87
2022/08/30 03:18:23;;;;;;;4.45;1.30;;;14.90;70.30;;;;;;4133897;28;20317;-86
2022/08/30 03:20:24;;;;;;;5.25;1.20;;;14.80;70.00;;;;;;4136872;28;20102;-87
2022/08/30 03:22:25;;;;;;;4.97;1.20;;;14.80;69.90;;;;;;4126981;28;20038;-87
2022/08/30 03:24:26;;;;;;;6.32;1.48;;;14.80;69.80;;;;;;4125111;28;20038;-87
2022/08/30 03:26:26;;;;;;;3.08;1.13;;;14.80;69.80;;;;;;4124566;28;20065;-86
2022/08/30 03:28:28;;;;;;;1.75;1.02;;;14.80;69.80;;;;;;4125746;28;20031;-87
2022/08/30 03:30:29;;;;;;;2.80;1.10;;;14.70;69.70;;;;;;4127018;28;20098;-88
2022/08/30 03:32:29;;;;;;;2.38;1.23;;;14.70;69.80;;;;;;4110776;28;20030;-87
2022/08/30 03:34:30;;;;;;;3.78;0.98;;;14.70;69.90;;;;;;4117070;28;20184;-87
2022/08/30 03:36:32;;;;;;;5.25;1.20;;;14.60;69.90;;;;;;4115485;28;20038;-87
2022/08/30 03:38:32;;;;;;;3.40;1.20;;;14.60;69.90;;;;;;4115347;28;20059;-87
2022/08/30 03:40:34;;;;;;;3.38;1.23;;;14.60;70.00;;;;;;4113291;28;20056;-86
2022/08/30 03:42:35;;;;;;;3.75;1.00;;;14.60;70.00;;;;;;4117990;28;20038;-87
2022/08/30 03:44:37;;;;;;;3.85;1.20;;;14.60;70.10;;;;;;4117324;28;20038;-87
2022/08/30 03:46:38;;;;;;;5.13;1.42;;;14.50;70.10;;;;;;4120652;28;20047;-87
2022/08/30 03:48:39;;;;;;;4.32;1.00;;;14.50;70.90;;;;;;4108440;28;20027;-86
2022/08/30 03:50:40;;;;;;;3.45;1.00;;;14.50;70.30;;;;;;4115881;28;20041;-86
2022/08/30 03:52:41;;;;;;;3.42;1.30;;;14.50;70.30;;;;;;4114838;28;20026;-86
2022/08/30 03:54:42;;;;;;;4.35;1.42;;;14.50;70.40;;;;;;4123468;28;20117;-87
2022/08/30 03:56:43;;;;;;;3.00;1.15;;;14.50;70.50;;;;;;4113835;28;20038;-86
2022/08/30 03:58:44;;;;;;;4.07;1.17;;;14.50;70.70;;;;;;4118070;28;20040;-86
2022/08/30 04:00:45;;;;;;;1.38;0.90;;;14.40;70.70;;;;;;4117492;28;20759;-85
2022/08/30 04:02:45;;;;;;;2.97;1.17;;;14.50;70.90;;;;;;4114511;28;20116;-86
2022/08/30 04:04:46;;;;;;;3.10;0.90;;;14.40;70.90;;;;;;4121936;28;20041;-85
2022/08/30 04:06:47;;;;;;;5.82;0.82;;;14.40;71.00;;;;;;4123379;28;20034;-84
2022/08/30 04:08:48;;;;;;;1.73;0.90;;;14.40;71.20;;;;;;4122756;28;20487;-84
2022/08/30 04:10:49;;;;;;;2.70;0.95;;;14.40;71.20;;;;;;4130712;28;20050;-84
2022/08/30 04:13:10;;;;;;;6.90;1.30;;;14.40;71.30;;;;;;4116165;28;20122;-84
2022/08/30 04:15:31;;;;;;;5.43;1.05;;;14.40;71.30;;;;;;4121372;28;20039;-84
2022/08/30 04:17:53;;;;;;;1.80;0.82;;;14.40;71.40;;;;;;4119507;28;20034;-83
2022/08/30 04:20:15;;;;;;;3.72;1.00;;;14.40;71.40;;;;;;4118454;28;20534;-84
2022/08/30 04:22:36;;;;;;;3.38;1.20;;;14.40;71.50;;;;;;4115373;28;20042;-83
2022/08/30 04:24:56;;;;;;;2.30;1.23;;;14.40;71.60;;;;;;4117897;28;20046;-83
2022/08/30 04:27:19;;;;;;;5.05;1.20;;;14.50;71.70;;;;;;4120624;28;20030;-83
2022/08/30 04:29:39;;;;;;;4.72;1.10;;;14.40;71.70;;;;;;4121415;28;20066;-84
2022/08/30 04:32:00;;;;;;;5.93;1.42;;;14.50;72.50;;;;;;4115012;28;20065;-84
2022/08/30 04:34:21;;;;;;;6.72;1.33;;;14.50;72.00;;;;;;4115206;28;20030;-84
2022/08/30 04:36:47;;;;;;;1.83;1.08;;;14.50;72.20;;;;;;4115869;28;20031;-84
2022/08/30 04:39:08;;;;;;;5.35;1.30;;;14.50;72.60;;;;;;4114549;28;20035;-84
2022/08/30 04:41:29;;;;;;;2.92;1.27;;;14.50;72.70;;;;;;4122383;28;21971;-83
2022/08/30 04:43:50;;;;;;;6.00;1.08;;;14.50;72.70;;;;;;4114525;28;20042;-84
2022/08/30 04:46:12;;;;;;;6.53;1.15;;;14.50;72.90;;;;;;4119070;28;20055;-83
2022/08/30 04:48:33;;;;;;;3.00;1.13;;;14.60;73.00;;;;;;4118778;28;20085;-84
2022/08/30 04:50:54;;;;;;;2.97;1.10;;;14.60;73.00;;;;;;4118117;28;20343;-84
2022/08/30 04:53:15;;;;;;;6.28;1.33;;;14.60;73.00;;;;;;4118489;28;20033;-83
2022/08/30 04:55:37;;;;;;;5.95;1.30;;;14.60;73.10;;;;;;4111541;28;20066;-83
2022/08/30 04:57:59;;;;;;;5.20;1.13;;;14.60;73.20;;;;;;4114400;28;20031;-84
2022/08/30 05:00:20;;;;;;;2.67;1.00;;;14.70;73.30;;;;;;4116768;28;20039;-84
2022/08/30 05:02:41;;;;;;;1.67;0.90;;;14.70;73.30;;;;;;4120512;28;20080;-84
2022/08/30 05:07:41;;;;;;;1.65;0.93;;;14.70;73.40;;;;;;4114101;28;20038;-84
2022/08/30 05:10:03;;;;;;;4.85;1.10;;;14.70;73.30;;;;;;4112837;28;20066;-84
2022/08/30 05:12:24;;;;;;;2.92;1.08;;;14.70;73.40;;;;;;4116892;28;20034;-84
2022/08/30 05:14:45;;;;;;;2.97;1.20;;;14.80;73.50;;;;;;4116155;28;20045;-84
2022/08/30 05:16:45;;;;;;;4.25;1.50;;;14.80;73.30;;;;;;4115945;28;20031;-84
2022/08/30 05:18:48;;;;;;;3.42;1.30;;;14.80;73.40;;;;;;4113743;28;20439;-84
2022/08/30 05:20:48;;;;;;;1.63;0.90;;;14.80;73.40;;;;;;4115495;28;20682;-83
2022/08/30 05:22:49;;;;;;;2.95;0.98;;;14.80;73.30;;;;;;4116754;28;20153;-83
2022/08/30 05:24:50;;;;;;;3.38;1.35;;;14.80;73.30;;;;;;4118828;28;20054;-84
2022/08/30 05:26:50;;;;;;;4.00;1.00;;;14.80;73.30;;;;;;4120706;28;20034;-84
2022/08/30 05:28:51;;;;;;;4.75;1.00;;;14.80;73.50;;;;;;4111198;28;20394;-84
2022/08/30 05:30:52;;;;;;;3.05;1.00;;;14.80;73.50;;;;;;4114142;28;21526;-84
2022/08/30 05:32:53;;;;;;;3.50;1.00;;;14.90;73.60;;;;;;4102325;28;20041;-84
2022/08/30 05:34:54;;;;;;;4.68;1.35;;;14.90;73.80;;;;;;4118770;28;21083;-84
2022/08/30 05:36:54;;;;;;;5.45;1.17;;;14.90;73.80;;;;;;4105055;28;20038;-84
2022/08/30 05:38:56;;;;;;;2.42;1.17;;;14.90;73.90;;;;;;4117183;28;20022;-84
2022/08/30 05:40:57;;;;;;;2.17;1.00;;;14.90;73.90;;;;;;4130449;28;20032;-84
2022/08/30 05:42:57;;;;;;;1.85;1.17;;;14.90;74.60;;;;;;4117700;28;20077;-84
2022/08/30 05:44:58;;;;;;;3.17;1.00;;;14.90;73.80;;;;;;4123734;28;20030;-84
2022/08/30 05:46:59;;;;;;;3.47;1.00;;;14.90;73.70;;;;;;4116602;28;20394;-84
2022/08/30 05:49:01;;;;;;;3.30;1.20;;;15.00;73.70;;;;;;4100225;28;20113;-84
2022/08/30 05:51:07;;;;;;;5.78;1.05;;;15.00;73.60;;;;;;4116716;28;20149;-84
2022/08/30 05:53:08;;;;;;;2.80;1.20;;;15.00;73.50;;;;;;4116591;28;20035;-84
2022/08/30 05:55:10;;;;;;;1.90;1.10;;;15.00;73.40;;;;;;4117531;28;20371;-84
2022/08/30 05:57:11;;;;;;;1.95;0.98;;;15.00;73.30;;;;;;4118694;28;20034;-84
2022/08/30 05:59:13;;;;;;;5.20;1.42;;;15.00;73.20;;;;;;4118850;28;20030;-84
2022/08/30 06:01:28;;;;;;;3.63;0.93;;;15.10;73.10;;;;;;4103194;28;20027;-84
2022/08/30 06:03:31;;;;;;;1.92;0.93;;;15.10;73.20;;;;;;4117662;28;20054;-84
2022/08/30 06:05:32;;;;;;;4.57;1.00;;;15.10;73.10;;;;;;4122078;28;20034;-85
2022/08/30 06:07:33;;;;;;;7.03;1.15;;;15.10;73.30;;;;;;4105632;28;20479;-85
2022/08/30 06:09:34;;;;;;;2.42;0.98;;;15.10;73.40;;;;;;4121910;28;20072;-85
2022/08/30 06:11:35;;;;;;;1.58;1.02;;;15.10;73.40;;;;;;4121268;28;20125;-85
2022/08/30 06:13:35;;;;;;;3.13;1.10;;;15.10;73.30;;;;;;4119939;28;20054;-84
2022/08/30 06:15:36;;;;;;;3.30;1.00;;;15.10;73.50;;;;;;4136802;28;20034;-86
2022/08/30 06:17:38;;;;;;;2.20;0.85;;;15.20;73.70;;;;;;4119707;28;20451;-84
2022/08/30 06:19:39;;;;;;;5.32;1.52;;;15.20;73.70;;;;;;4128152;28;20026;-84
2022/08/30 06:21:40;;;;;;;4.75;1.08;;;15.20;73.90;;;;;;4133457;28;20382;-84
2022/08/30 06:23:41;;;;;;;2.50;0.80;;;15.30;74.10;;;;;;4129736;28;20030;-83
2022/08/30 06:25:43;;;;;;;1.42;0.70;;;15.30;74.10;;;;;;4125217;28;20490;-84
2022/08/30 06:27:43;;;;;;;1.60;0.70;;;15.40;74.10;;;;;;4116311;28;20522;-84
2022/08/30 06:29:44;;;;;;;4.13;0.73;;;15.40;74.20;;;;;;4116758;28;20029;-84
2022/08/30 06:31:45;;;;;;;2.35;0.85;;;15.40;73.50;;;;;;4131419;28;20101;-84
2022/08/30 06:33:47;;;;;;;1.65;0.65;;;15.50;72.70;;;;;;4118238;28;20030;-84
2022/08/30 06:35:47;;;;;;;1.98;0.50;;;15.50;72.20;;;;;;4130083;28;20134;-85
2022/08/30 06:37:48;;;;;;;1.15;0.60;;;15.60;71.60;;;;;;4111173;28;20509;-83
2022/08/30 06:39:48;;;;;;;9.73;0.60;;;15.60;70.00;;;;;;4118346;28;20022;-84
2022/08/30 06:41:49;;;;;;;8.88;0.80;;;15.60;67.10;;;;;;4116855;28;20030;-84
2022/08/30 06:43:50;;;;;;;2.25;0.73;;;15.70;67.10;;;;;;4115446;28;20039;-83
2022/08/30 06:45:51;;;;;;;3.78;0.70;;;15.80;65.50;;;;;;4117728;28;20026;-84
2022/08/30 06:47:52;;;;;;;3.28;0.50;;;15.80;65.00;;;;;;4115036;28;20026;-84
2022/08/30 06:49:53;;;;;;;1.38;0.60;;;15.90;64.70;;;;;;4121081;28;20030;-84
2022/08/30 06:51:53;;;;;;;1.50;0.70;;;16.00;64.10;;;;;;4116150;28;20441;-83
2022/08/30 06:53:55;;;;;;;1.92;0.60;;;16.10;63.70;;;;;;4112775;28;20023;-84
2022/08/30 06:55:57;;;;;;;1.90;0.60;;;16.10;62.30;;;;;;4115084;28;20042;-84
2022/08/30 06:58:04;;;;;;;1.42;0.57;;;16.20;61.40;;;;;;4117187;28;20133;-84
2022/08/30 07:00:24;;;;;;;2.55;0.63;;;16.20;60.20;;;;;;4123788;28;20065;-83
2022/08/30 07:02:45;;;;;;;1.33;0.50;;;16.30;60.80;;;;;;4116027;28;20117;-83
2022/08/30 07:05:01;;;;;;;1.23;0.60;;;16.40;60.70;;;;;;4133535;28;20045;-83
2022/08/30 07:07:22;;;;;;;6.55;0.60;;;16.50;59.60;;;;;;4118704;28;20041;-84
2022/08/30 07:09:43;;;;;;;1.60;0.57;;;16.50;59.50;;;;;;4118987;28;21007;-83
2022/08/30 07:12:05;;;;;;;3.05;0.77;;;16.50;59.10;;;;;;4116669;28;20579;-84
2022/08/30 07:14:26;;;;;;;1.85;0.60;;;16.60;59.10;;;;;;4118517;28;20030;-84
2022/08/30 07:16:26;;;;;;;1.17;0.40;;;16.60;58.80;;;;;;4117827;28;20080;-84
2022/08/30 07:20:46;;;;;;;1.95;0.68;;;16.70;59.20;;;;;;4120846;28;20118;-83
2022/08/30 07:22:47;;;;;;;2.63;0.55;;;16.80;59.80;;;;;;4116087;28;20535;-83
2022/08/30 07:24:49;;;;;;;2.75;0.60;;;16.80;60.00;;;;;;4115657;28;20030;-83
2022/08/30 07:26:50;;;;;;;1.77;0.50;;;16.90;59.40;;;;;;4116426;28;20091;-83
2022/08/30 07:28:51;;;;;;;2.40;0.60;;;17.00;58.90;;;;;;4118314;28;20050;-84
2022/08/30 07:30:52;;;;;;;3.67;0.43;;;17.00;58.90;;;;;;4115521;28;20173;-84
2022/08/30 07:32:53;;;;;;;1.85;0.60;;;17.10;58.40;;;;;;4118210;28;20474;-85
2022/08/30 07:34:54;;;;;;;1.77;0.55;;;17.10;57.80;;;;;;4115568;28;20506;-84
2022/08/30 07:36:54;;;;;;;1.17;0.60;;;17.20;58.40;;;;;;4117286;28;20170;-84
2022/08/30 07:38:56;;;;;;;1.08;0.50;;;17.20;59.10;;;;;;4114962;28;20023;-84
2022/08/30 07:40:59;;;;;;;2.20;0.43;;;17.30;59.40;;;;;;4115965;28;20022;-84
2022/08/30 07:43:01;;;;;;;4.53;0.68;;;17.50;59.40;;;;;;4112670;28;20136;-84
2022/08/30 07:45:02;;;;;;;2.03;0.70;;;17.50;58.70;;;;;;4116152;28;20479;-84
2022/08/30 07:47:03;;;;;;;5.85;0.60;;;17.70;58.20;;;;;;4117596;28;20054;-85
2022/08/30 07:49:04;;;;;;;2.47;0.65;;;17.70;56.10;;;;;;4116257;28;20046;-85
2022/08/30 07:51:08;;;;;;;1.02;0.63;;;17.80;54.40;;;;;;4121375;28;20107;-83
2022/08/30 07:53:10;;;;;;;1.90;0.47;;;17.90;52.90;;;;;;4115724;28;20031;-84
2022/08/30 07:55:11;;;;;;;2.50;0.52;;;17.90;52.40;;;;;;4141371;28;20018;-84
2022/08/30 07:57:11;;;;;;;0.70;0.60;;;18.00;52.80;;;;;;4137797;28;20027;-84
2022/08/30 07:59:12;;;;;;;3.50;0.90;;;18.10;52.50;;;;;;4132169;28;20309;-85
2022/08/30 08:01:13;;;;;;;1.38;0.57;;;18.20;53.00;;;;;;4123550;28;20479;-84
2022/08/30 08:03:14;;;;;;;1.38;0.52;;;18.30;52.90;;;;;;4120419;28;20042;-84
2022/08/30 08:05:15;;;;;;;3.67;0.50;;;18.30;52.80;;;;;;4116092;28;20109;-85
2022/08/30 08:07:15;;;;;;;1.65;0.70;;;18.40;51.50;;;;;;4117470;28;20534;-85
2022/08/30 08:09:16;;;;;;;2.45;0.60;;;18.40;50.90;;;;;;4119783;28;20031;-84
2022/08/30 08:11:21;;;;;;;1.52;0.60;;;18.50;50.50;;;;;;4117665;28;20064;-83
2022/08/30 08:13:22;;;;;;;0.93;0.40;;;18.50;49.90;;;;;;4116887;28;20390;-85
2022/08/30 08:15:25;;;;;;;2.15;0.50;;;18.60;49.80;;;;;;4114398;28;20031;-85
2022/08/30 08:17:26;;;;;;;3.10;0.70;;;18.60;49.70;;;;;;4129128;28;20096;-85
2022/08/30 08:19:27;;;;;;;0.60;0.30;;;18.60;49.30;;;;;;4118517;28;20065;-85
2022/08/30 08:21:28;;;;;;;1.55;0.68;;;18.60;48.80;;;;;;4116595;28;20030;-84
2022/08/30 08:23:29;;;;;;;3.63;0.80;;;18.70;47.60;;;;;;4113373;28;20125;-83
2022/08/30 08:25:29;;;;;;;2.90;0.73;;;18.70;47.80;;;;;;4116666;28;20044;-85
2022/08/30 08:27:30;;;;;;;1.55;0.70;;;18.70;48.90;;;;;;4116330;28;20041;-84
2022/08/30 08:29:31;;;;;;;1.95;0.60;;;18.80;47.90;;;;;;4118963;28;20368;-85
2022/08/30 08:31:32;;;;;;;1.17;0.45;;;18.80;47.00;;;;;;4117053;28;20034;-85
2022/08/30 08:33:32;;;;;;;0.98;0.60;;;18.90;45.80;;;;;;4114815;28;20038;-85
2022/08/30 08:35:33;;;;;;;3.90;0.70;;;18.90;45.30;;;;;;4115700;28;20102;-85
2022/08/30 08:37:34;;;;;;;0.80;0.47;;;18.90;44.90;;;;;;4115768;28;20105;-84
2022/08/30 08:39:34;;;;;;;1.33;0.60;;;18.90;44.50;;;;;;4114722;28;20034;-85
2022/08/30 08:42:02;;;;;;;2.80;0.60;;;18.90;45.00;;;;;;4128288;28;20617;-84
2022/08/30 08:44:14;;;;;;;1.25;0.47;;;18.90;45.60;;;;;;4115833;28;20023;-85
2022/08/30 08:46:17;;;;;;;1.10;0.47;;;19.00;44.00;;;;;;4115357;28;20022;-85
2022/08/30 08:48:24;;;;;;;1.08;0.52;;;19.00;44.40;;;;;;4114640;28;21545;-85
2022/08/30 08:50:25;;;;;;;0.60;0.50;;;19.00;43.60;;;;;;4117948;28;20046;-86
2022/08/30 08:55:14;;;;;;;1.30;0.55;;;19.00;44.20;;;;;;4113289;28;20502;-85
2022/08/30 08:57:14;;;;;;;2.15;0.80;;;19.00;44.70;;;;;;4115478;28;20533;-84
2022/08/30 08:59:16;;;;;;;1.75;0.75;;;18.90;44.50;;;;;;4114766;28;20019;-85
2022/08/30 09:01:20;;;;;;;2.03;0.60;;;18.90;45.00;;;;;;4121813;28;20399;-85
2022/08/30 09:03:23;;;;;;;0.95;0.70;;;19.00;45.50;;;;;;4116697;28;20242;-85
2022/08/30 09:05:29;;;;;;;1.08;0.50;;;18.90;44.30;;;;;;4121835;28;20034;-85
2022/08/30 09:07:40;;;;;;;1.17;0.43;;;18.90;44.70;;;;;;4108556;28;20031;-85
2022/08/30 09:09:42;;;;;;;1.65;0.50;;;19.00;45.00;;;;;;4118483;28;20034;-84
2022/08/30 09:11:46;;;;;;;1.13;0.52;;;19.00;45.10;;;;;;4119622;28;20106;-86
2022/08/30 09:13:47;;;;;;;3.72;0.73;;;19.00;44.40;;;;;;4118578;28;20027;-86
2022/08/30 09:15:48;;;;;;;5.93;0.55;;;19.10;45.40;;;;;;4122393;28;20431;-85
2022/08/30 09:18:00;;;;;;;0.75;0.60;;;19.10;45.30;;;;;;4116082;28;20035;-85
2022/08/30 09:20:01;;;;;;;2.90;0.80;;;19.20;44.80;;;;;;4120176;28;20030;-85
2022/08/30 09:22:04;;;;;;;1.33;0.50;;;19.20;44.50;;;;;;4114389;28;20399;-85
2022/08/30 09:24:07;;;;;;;1.02;0.60;;;19.20;44.00;;;;;;4122097;28;20034;-85
2022/08/30 09:26:08;;;;;;;0.80;0.40;;;19.20;44.00;;;;;;4116221;28;20917;-84
2022/08/30 09:28:14;;;;;;;3.53;0.90;;;19.20;44.40;;;;;;4105133;28;20252;-84
2022/08/30 09:30:19;;;;;;;1.00;0.50;;;19.20;44.70;;;;;;4120627;28;20091;-85
2022/08/30 09:32:29;;;;;;;1.35;0.52;;;19.20;44.90;;;;;;4119138;28;20027;-85
2022/08/30 09:34:32;;;;;;;3.03;0.70;;;19.10;44.60;;;;;;4116876;28;20026;-84
2022/08/30 09:36:40;;;;;;;2.08;0.60;;;19.10;45.00;;;;;;4119393;28;20505;-84
2022/08/30 09:38:44;;;;;;;1.60;0.47;;;19.10;44.80;;;;;;4119425;28;20033;-91
2022/08/30 09:40:57;;;;;;;1.40;0.70;;;19.10;44.70;;;;;;4122282;28;20450;-85
2022/08/30 09:43:02;;;;;;;0.55;0.35;;;19.00;44.40;;;;;;4133743;28;20032;-84
2022/08/30 09:45:10;;;;;;;1.45;0.50;;;19.00;45.00;;;;;;4122879;28;20042;-85
2022/08/30 09:47:19;;;;;;;1.33;0.73;;;18.90;44.50;;;;;;4116714;28;20394;-84
2022/08/30 09:49:32;;;;;;;2.10;0.50;;;18.90;44.40;;;;;;4116004;28;20383;-83
2022/08/30 09:52:00;;;;;;;2.17;0.50;;;18.80;44.90;;;;;;4131139;28;20061;-85
2022/08/30 09:54:25;;;;;;;1.20;0.50;;;18.80;44.80;;;;;;4116724;28;20619;-85
2022/08/30 09:56:49;;;;;;;0.38;0.30;;;18.80;45.20;;;;;;4120630;28;20095;-85
2022/08/30 09:59:03;;;;;;;1.35;0.60;;;18.70;45.10;;;;;;4122346;28;20030;-85
2022/08/30 10:01:10;;;;;;;1.25;0.70;;;18.60;45.60;;;;;;4119572;28;20038;-85
2022/08/30 10:03:19;;;;;;;0.98;0.50;;;18.60;45.90;;;;;;4119856;28;20374;-85
2022/08/30 10:05:55;;;;;;;3.25;0.70;;;18.50;46.20;;;;;;4105977;28;20065;-86
2022/08/30 10:08:17;;;;;;;2.17;0.40;;;18.60;46.10;;;;;;4117546;28;21422;-85
2022/08/30 10:10:40;;;;;;;1.02;0.50;;;18.50;46.30;;;;;;4120538;28;20031;-85
2022/08/30 10:13:18;;;;;;;1.98;0.52;;;18.50;45.70;;;;;;4119226;28;20018;-85
2022/08/30 10:15:28;;;;;;;1.27;0.43;;;18.50;46.60;;;;;;4118874;28;20379;-87
2022/08/30 10:17:44;;;;;;;1.58;0.52;;;18.60;46.80;;;;;;4120108;28;20394;-84
2022/08/30 10:19:56;;;;;;;2.38;0.65;;;18.60;46.20;;;;;;4133194;28;20501;-84
2022/08/30 10:22:00;;;;;;;1.17;0.70;;;18.70;46.80;;;;;;4122294;28;20105;-84
2022/08/30 10:24:06;;;;;;;6.03;0.68;;;18.70;46.30;;;;;;4134296;28;20038;-84
2022/08/30 10:26:29;;;;;;;1.50;0.73;;;18.80;45.00;;;;;;4121632;28;20043;-84
2022/08/30 10:28:47;;;;;;;1.75;0.60;;;18.80;44.50;;;;;;4127602;28;20026;-84
2022/08/30 10:30:57;;;;;;;1.27;0.40;;;18.90;44.80;;;;;;4119928;28;22554;-83
2022/08/30 10:33:13;;;;;;;0.30;0.25;;;19.00;45.20;;;;;;4118204;28;20026;-83
2022/08/30 10:35:23;;;;;;;3.38;0.50;;;19.00;44.00;;;;;;4117381;28;20426;-83
2022/08/30 10:37:30;;;;;;;1.30;0.50;;;19.00;44.30;;;;;;4121311;28;20040;-85
2022/08/30 10:39:38;;;;;;;1.75;0.50;;;19.00;44.20;;;;;;4118285;28;20097;-85
2022/08/30 10:41:53;;;;;;;2.72;0.50;;;18.90;44.90;;;;;;4121998;28;20053;-84
2022/08/30 10:44:03;;;;;;;0.98;0.40;;;19.10;44.70;;;;;;4125749;28;20066;-84
2022/08/30 10:46:10;;;;;;;4.03;0.40;;;19.10;44.00;;;;;;4117379;28;20527;-87
2022/08/30 10:48:34;;;;;;;1.25;0.40;;;19.10;43.90;;;;;;4132847;28;20497;-87
2022/08/30 10:50:41;;;;;;;0.88;0.40;;;19.20;44.60;;;;;;4120091;28;20034;-85
2022/08/30 10:53:01;;;;;;;2.35;0.65;;;19.20;44.80;;;;;;4119094;28;20431;-87
2022/08/30 10:55:07;;;;;;;4.50;0.50;;;19.30;44.80;;;;;;4119917;28;20429;-83
2022/08/30 10:57:08;;;;;;;0.95;0.50;;;19.40;45.00;;;;;;4117702;28;20525;-86
2022/08/30 10:59:09;;;;;;;1.45;0.40;;;19.40;44.10;;;;;;4117401;28;20570;-85